sensor_id;sensor_type;location;lat;lon;timestamp;P1;durP1;ratioP1;P2;durP2;ratioP2
2896;SDS011;1458;49.728;9.228;2024-01-30T00:00:24;0.57;;;0.57;;
2896;SDS011;1458;49.728;9.228;2024-01-30T00:02:51;0.53;;;0.53;;
2896;SDS011;1458;49.728;9.228;2024-01-30T00:05:19;0.60;;;0.60;;
2896;SDS011;1458;49.728;9.228;2024-01-30T00:07:46;0.70;;;0.70;;
2896;SDS011;1458;49.728;9.228;2024-01-30T00:10:14;0.60;;;0.60;;
2896;SDS011;1458;49.728;9.228;2024-01-30T00:12:41;0.60;;;0.60;;
2896;SDS011;1458;49.728;9.228;2024-01-30T00:15:10;0.60;;;0.60;;
2896;SDS011;1458;49.728;9.228;2024-01-30T00:17:37;0.60;;;0.60;;
2896;SDS011;1458;49.728;9.228;2024-01-30T00:20:05;0.60;;;0.60;;
2896;SDS011;1458;49.728;9.228;2024-01-30T00:22:34;0.60;;;0.60;;
2896;SDS011;1458;49.728;9.228;2024-01-30T00:25:02;0.70;;;0.70;;
2896;SDS011;1458;49.728;9.228;2024-01-30T00:27:30;0.80;;;0.80;;
2896;SDS011;1458;49.728;9.228;2024-01-30T00:29:57;0.60;;;0.60;;
2896;SDS011;1458;49.728;9.228;2024-01-30T00:32:29;0.60;;;0.60;;
2896;SDS011;1458;49.728;9.228;2024-01-30T00:34:56;0.67;;;0.67;;
2896;SDS011;1458;49.728;9.228;2024-01-30T00:37:24;0.60;;;0.60;;
2896;SDS011;1458;49.728;9.228;2024-01-30T00:39:51;0.60;;;0.60;;
2896;SDS011;1458;49.728;9.228;2024-01-30T00:42:19;0.60;;;0.60;;
2896;SDS011;1458;49.728;9.228;2024-01-30T00:44:46;0.60;;;0.60;;
2896;SDS011;1458;49.728;9.228;2024-01-30T00:47:13;0.70;;;0.70;;
2896;SDS011;1458;49.728;9.228;2024-01-30T00:49:42;0.60;;;0.60;;
2896;SDS011;1458;49.728;9.228;2024-01-30T00:52:10;0.60;;;0.60;;
2896;SDS011;1458;49.728;9.228;2024-01-30T00:54:37;0.60;;;0.60;;
2896;SDS011;1458;49.728;9.228;2024-01-30T00:57:05;0.60;;;0.60;;
2896;SDS011;1458;49.728;9.228;2024-01-30T00:59:32;0.60;;;0.60;;
2896;SDS011;1458;49.728;9.228;2024-01-30T01:02:00;0.60;;;0.60;;
2896;SDS011;1458;49.728;9.228;2024-01-30T01:04:27;0.60;;;0.60;;
2896;SDS011;1458;49.728;9.228;2024-01-30T01:06:56;0.63;;;0.63;;
2896;SDS011;1458;49.728;9.228;2024-01-30T01:09:23;0.60;;;0.60;;
2896;SDS011;1458;49.728;9.228;2024-01-30T01:11:51;0.63;;;0.63;;
2896;SDS011;1458;49.728;9.228;2024-01-30T01:14:19;0.60;;;0.60;;
2896;SDS011;1458;49.728;9.228;2024-01-30T01:16:46;0.60;;;0.60;;
2896;SDS011;1458;49.728;9.228;2024-01-30T01:19:14;0.60;;;0.60;;
2896;SDS011;1458;49.728;9.228;2024-01-30T01:21:41;0.60;;;0.60;;
2896;SDS011;1458;49.728;9.228;2024-01-30T01:28:16;0.60;;;0.60;;
2896;SDS011;1458;49.728;9.228;2024-01-30T01:30:43;0.63;;;0.63;;
2896;SDS011;1458;49.728;9.228;2024-01-30T01:33:11;0.60;;;0.60;;
2896;SDS011;1458;49.728;9.228;2024-01-30T01:35:39;0.60;;;0.60;;
2896;SDS011;1458;49.728;9.228;2024-01-30T01:38:06;0.60;;;0.60;;
2896;SDS011;1458;49.728;9.228;2024-01-30T01:40:34;0.60;;;0.60;;
2896;SDS011;1458;49.728;9.228;2024-01-30T01:43:02;0.60;;;0.60;;
2896;SDS011;1458;49.728;9.228;2024-01-30T01:45:32;0.60;;;0.60;;
2896;SDS011;1458;49.728;9.228;2024-01-30T01:48:00;0.60;;;0.60;;
2896;SDS011;1458;49.728;9.228;2024-01-30T01:50:27;0.60;;;0.60;;
2896;SDS011;1458;49.728;9.228;2024-01-30T01:52:55;0.60;;;0.60;;
2896;SDS011;1458;49.728;9.228;2024-01-30T01:55:23;0.57;;;0.57;;
2896;SDS011;1458;49.728;9.228;2024-01-30T01:57:53;0.57;;;0.57;;
2896;SDS011;1458;49.728;9.228;2024-01-30T02:00:21;0.60;;;0.60;;
2896;SDS011;1458;49.728;9.228;2024-01-30T02:02:50;0.50;;;0.50;;
2896;SDS011;1458;49.728;9.228;2024-01-30T02:05:19;0.50;;;0.50;;
2896;SDS011;1458;49.728;9.228;2024-01-30T02:07:47;0.50;;;0.50;;
2896;SDS011;1458;49.728;9.228;2024-01-30T02:10:15;0.60;;;0.60;;
2896;SDS011;1458;49.728;9.228;2024-01-30T02:12:42;0.60;;;0.60;;
2896;SDS011;1458;49.728;9.228;2024-01-30T02:15:12;0.60;;;0.60;;
2896;SDS011;1458;49.728;9.228;2024-01-30T02:17:40;0.60;;;0.60;;
2896;SDS011;1458;49.728;9.228;2024-01-30T02:20:10;0.60;;;0.60;;
2896;SDS011;1458;49.728;9.228;2024-01-30T02:22:39;0.60;;;0.60;;
2896;SDS011;1458;49.728;9.228;2024-01-30T02:25:08;0.60;;;0.60;;
2896;SDS011;1458;49.728;9.228;2024-01-30T02:27:35;0.60;;;0.60;;
2896;SDS011;1458;49.728;9.228;2024-01-30T02:30:03;0.60;;;0.60;;
2896;SDS011;1458;49.728;9.228;2024-01-30T02:32:32;0.60;;;0.60;;
2896;SDS011;1458;49.728;9.228;2024-01-30T02:35:00;0.60;;;0.60;;
2896;SDS011;1458;49.728;9.228;2024-01-30T02:37:27;0.80;;;0.80;;
2896;SDS011;1458;49.728;9.228;2024-01-30T02:39:56;0.60;;;0.60;;
2896;SDS011;1458;49.728;9.228;2024-01-30T02:42:24;0.70;;;0.70;;
2896;SDS011;1458;49.728;9.228;2024-01-30T02:44:51;0.63;;;0.63;;
2896;SDS011;1458;49.728;9.228;2024-01-30T02:47:18;0.77;;;0.77;;
2896;SDS011;1458;49.728;9.228;2024-01-30T02:49:46;0.70;;;0.70;;
2896;SDS011;1458;49.728;9.228;2024-01-30T02:52:13;0.70;;;0.70;;
2896;SDS011;1458;49.728;9.228;2024-01-30T02:54:41;0.60;;;0.60;;
2896;SDS011;1458;49.728;9.228;2024-01-30T02:57:09;0.63;;;0.63;;
2896;SDS011;1458;49.728;9.228;2024-01-30T02:59:37;0.60;;;0.60;;
2896;SDS011;1458;49.728;9.228;2024-01-30T03:02:04;0.60;;;0.60;;
2896;SDS011;1458;49.728;9.228;2024-01-30T03:04:31;0.70;;;0.70;;
2896;SDS011;1458;49.728;9.228;2024-01-30T03:06:59;0.60;;;0.60;;
2896;SDS011;1458;49.728;9.228;2024-01-30T03:09:26;0.50;;;0.50;;
2896;SDS011;1458;49.728;9.228;2024-01-30T03:11:54;0.60;;;0.60;;
2896;SDS011;1458;49.728;9.228;2024-01-30T03:14:22;0.70;;;0.70;;
2896;SDS011;1458;49.728;9.228;2024-01-30T03:16:50;0.60;;;0.60;;
2896;SDS011;1458;49.728;9.228;2024-01-30T03:19:17;0.60;;;0.60;;
2896;SDS011;1458;49.728;9.228;2024-01-30T03:21:45;0.60;;;0.60;;
2896;SDS011;1458;49.728;9.228;2024-01-30T03:24:12;0.60;;;0.60;;
2896;SDS011;1458;49.728;9.228;2024-01-30T03:26:39;0.60;;;0.60;;
2896;SDS011;1458;49.728;9.228;2024-01-30T03:29:07;0.60;;;0.60;;
2896;SDS011;1458;49.728;9.228;2024-01-30T03:31:35;0.60;;;0.60;;
2896;SDS011;1458;49.728;9.228;2024-01-30T03:34:03;0.60;;;0.60;;
2896;SDS011;1458;49.728;9.228;2024-01-30T03:36:30;0.60;;;0.60;;
2896;SDS011;1458;49.728;9.228;2024-01-30T03:38:59;0.60;;;0.60;;
2896;SDS011;1458;49.728;9.228;2024-01-30T03:41:27;0.60;;;0.60;;
2896;SDS011;1458;49.728;9.228;2024-01-30T03:43:54;0.67;;;0.67;;
2896;SDS011;1458;49.728;9.228;2024-01-30T03:46:22;0.60;;;0.60;;
2896;SDS011;1458;49.728;9.228;2024-01-30T03:48:51;0.50;;;0.50;;
2896;SDS011;1458;49.728;9.228;2024-01-30T03:51:18;0.80;;;0.80;;
2896;SDS011;1458;49.728;9.228;2024-01-30T03:53:45;0.60;;;0.60;;
2896;SDS011;1458;49.728;9.228;2024-01-30T03:56:13;0.60;;;0.60;;
2896;SDS011;1458;49.728;9.228;2024-01-30T03:58:40;0.60;;;0.60;;
2896;SDS011;1458;49.728;9.228;2024-01-30T04:01:12;0.50;;;0.50;;
2896;SDS011;1458;49.728;9.228;2024-01-30T04:03:40;0.67;;;0.67;;
2896;SDS011;1458;49.728;9.228;2024-01-30T04:06:10;0.60;;;0.60;;
2896;SDS011;1458;49.728;9.228;2024-01-30T04:08:38;0.60;;;0.60;;
2896;SDS011;1458;49.728;9.228;2024-01-30T04:11:06;0.60;;;0.60;;
2896;SDS011;1458;49.728;9.228;2024-01-30T04:13:33;0.60;;;0.60;;
2896;SDS011;1458;49.728;9.228;2024-01-30T04:16:01;0.57;;;0.57;;
2896;SDS011;1458;49.728;9.228;2024-01-30T04:18:29;0.70;;;0.70;;
2896;SDS011;1458;49.728;9.228;2024-01-30T04:20:58;0.70;;;0.70;;
2896;SDS011;1458;49.728;9.228;2024-01-30T04:23:27;0.60;;;0.60;;
2896;SDS011;1458;49.728;9.228;2024-01-30T04:25:54;0.60;;;0.60;;
2896;SDS011;1458;49.728;9.228;2024-01-30T04:28:21;0.70;;;0.70;;
2896;SDS011;1458;49.728;9.228;2024-01-30T04:30:49;0.60;;;0.60;;
2896;SDS011;1458;49.728;9.228;2024-01-30T04:33:16;0.60;;;0.60;;
2896;SDS011;1458;49.728;9.228;2024-01-30T04:35:44;0.60;;;0.60;;
2896;SDS011;1458;49.728;9.228;2024-01-30T04:38:11;0.70;;;0.70;;
2896;SDS011;1458;49.728;9.228;2024-01-30T04:40:41;0.60;;;0.60;;
2896;SDS011;1458;49.728;9.228;2024-01-30T04:43:09;0.70;;;0.70;;
2896;SDS011;1458;49.728;9.228;2024-01-30T04:45:36;0.63;;;0.63;;
2896;SDS011;1458;49.728;9.228;2024-01-30T04:48:04;0.70;;;0.70;;
2896;SDS011;1458;49.728;9.228;2024-01-30T04:50:33;0.70;;;0.70;;
2896;SDS011;1458;49.728;9.228;2024-01-30T04:53:01;0.70;;;0.70;;
2896;SDS011;1458;49.728;9.228;2024-01-30T04:55:29;0.70;;;0.70;;
2896;SDS011;1458;49.728;9.228;2024-01-30T04:57:57;0.63;;;0.63;;
2896;SDS011;1458;49.728;9.228;2024-01-30T05:00:25;0.70;;;0.70;;
2896;SDS011;1458;49.728;9.228;2024-01-30T05:02:52;0.70;;;0.70;;
2896;SDS011;1458;49.728;9.228;2024-01-30T05:05:21;0.70;;;0.70;;
2896;SDS011;1458;49.728;9.228;2024-01-30T05:07:48;0.70;;;0.70;;
2896;SDS011;1458;49.728;9.228;2024-01-30T05:10:16;0.83;;;0.83;;
2896;SDS011;1458;49.728;9.228;2024-01-30T05:12:43;0.70;;;0.70;;
2896;SDS011;1458;49.728;9.228;2024-01-30T05:15:12;0.80;;;0.80;;
2896;SDS011;1458;49.728;9.228;2024-01-30T05:17:40;0.70;;;0.70;;
2896;SDS011;1458;49.728;9.228;2024-01-30T05:20:07;0.70;;;0.70;;
2896;SDS011;1458;49.728;9.228;2024-01-30T05:22:37;0.70;;;0.70;;
2896;SDS011;1458;49.728;9.228;2024-01-30T05:25:10;0.87;;;0.87;;
2896;SDS011;1458;49.728;9.228;2024-01-30T05:27:38;0.80;;;0.80;;
2896;SDS011;1458;49.728;9.228;2024-01-30T05:30:06;0.70;;;0.70;;
2896;SDS011;1458;49.728;9.228;2024-01-30T05:32:35;0.93;;;0.93;;
2896;SDS011;1458;49.728;9.228;2024-01-30T05:35:03;0.80;;;0.80;;
2896;SDS011;1458;49.728;9.228;2024-01-30T05:37:33;0.70;;;0.70;;
2896;SDS011;1458;49.728;9.228;2024-01-30T05:40:00;0.70;;;0.70;;
2896;SDS011;1458;49.728;9.228;2024-01-30T05:42:28;0.60;;;0.60;;
2896;SDS011;1458;49.728;9.228;2024-01-30T05:44:55;0.70;;;0.70;;
2896;SDS011;1458;49.728;9.228;2024-01-30T05:47:26;0.60;;;0.60;;
2896;SDS011;1458;49.728;9.228;2024-01-30T05:49:54;0.70;;;0.70;;
2896;SDS011;1458;49.728;9.228;2024-01-30T05:52:22;0.70;;;0.70;;
2896;SDS011;1458;49.728;9.228;2024-01-30T05:54:49;0.80;;;0.80;;
2896;SDS011;1458;49.728;9.228;2024-01-30T05:57:17;0.70;;;0.70;;
2896;SDS011;1458;49.728;9.228;2024-01-30T05:59:44;0.70;;;0.70;;
2896;SDS011;1458;49.728;9.228;2024-01-30T06:02:12;0.70;;;0.70;;
2896;SDS011;1458;49.728;9.228;2024-01-30T06:04:40;0.70;;;0.70;;
2896;SDS011;1458;49.728;9.228;2024-01-30T06:07:09;0.70;;;0.70;;
2896;SDS011;1458;49.728;9.228;2024-01-30T06:09:36;0.70;;;0.70;;
2896;SDS011;1458;49.728;9.228;2024-01-30T06:12:04;0.70;;;0.70;;
2896;SDS011;1458;49.728;9.228;2024-01-30T06:14:32;0.70;;;0.70;;
2896;SDS011;1458;49.728;9.228;2024-01-30T06:17:00;0.60;;;0.60;;
2896;SDS011;1458;49.728;9.228;2024-01-30T06:19:27;0.60;;;0.60;;
2896;SDS011;1458;49.728;9.228;2024-01-30T06:21:55;0.60;;;0.60;;
2896;SDS011;1458;49.728;9.228;2024-01-30T06:24:26;0.70;;;0.70;;
2896;SDS011;1458;49.728;9.228;2024-01-30T06:26:54;0.60;;;0.60;;
2896;SDS011;1458;49.728;9.228;2024-01-30T06:29:21;0.60;;;0.60;;
2896;SDS011;1458;49.728;9.228;2024-01-30T06:31:50;0.70;;;0.70;;
2896;SDS011;1458;49.728;9.228;2024-01-30T06:34:17;0.70;;;0.70;;
2896;SDS011;1458;49.728;9.228;2024-01-30T06:36:45;0.60;;;0.60;;
2896;SDS011;1458;49.728;9.228;2024-01-30T06:39:12;0.60;;;0.60;;
2896;SDS011;1458;49.728;9.228;2024-01-30T06:41:42;0.60;;;0.60;;
2896;SDS011;1458;49.728;9.228;2024-01-30T06:44:11;0.60;;;0.60;;
2896;SDS011;1458;49.728;9.228;2024-01-30T06:46:39;0.70;;;0.70;;
2896;SDS011;1458;49.728;9.228;2024-01-30T06:49:06;0.60;;;0.60;;
2896;SDS011;1458;49.728;9.228;2024-01-30T06:51:34;0.70;;;0.70;;
2896;SDS011;1458;49.728;9.228;2024-01-30T06:54:01;0.60;;;0.60;;
2896;SDS011;1458;49.728;9.228;2024-01-30T06:56:29;0.70;;;0.70;;
2896;SDS011;1458;49.728;9.228;2024-01-30T06:58:58;0.60;;;0.60;;
2896;SDS011;1458;49.728;9.228;2024-01-30T07:01:27;0.70;;;0.70;;
2896;SDS011;1458;49.728;9.228;2024-01-30T07:03:55;0.70;;;0.70;;
2896;SDS011;1458;49.728;9.228;2024-01-30T07:06:23;0.70;;;0.70;;
2896;SDS011;1458;49.728;9.228;2024-01-30T07:08:50;0.70;;;0.70;;
2896;SDS011;1458;49.728;9.228;2024-01-30T07:11:18;0.70;;;0.70;;
2896;SDS011;1458;49.728;9.228;2024-01-30T07:13:46;0.60;;;0.60;;
2896;SDS011;1458;49.728;9.228;2024-01-30T07:16:16;0.70;;;0.70;;
2896;SDS011;1458;49.728;9.228;2024-01-30T07:18:43;0.70;;;0.70;;
2896;SDS011;1458;49.728;9.228;2024-01-30T07:21:11;0.70;;;0.70;;
2896;SDS011;1458;49.728;9.228;2024-01-30T07:23:38;0.70;;;0.70;;
2896;SDS011;1458;49.728;9.228;2024-01-30T07:26:07;0.70;;;0.70;;
2896;SDS011;1458;49.728;9.228;2024-01-30T07:28:34;0.70;;;0.70;;
2896;SDS011;1458;49.728;9.228;2024-01-30T07:31:02;0.80;;;0.80;;
2896;SDS011;1458;49.728;9.228;2024-01-30T07:33:31;0.70;;;0.70;;
2896;SDS011;1458;49.728;9.228;2024-01-30T07:35:59;0.70;;;0.70;;
2896;SDS011;1458;49.728;9.228;2024-01-30T07:38:26;0.70;;;0.70;;
2896;SDS011;1458;49.728;9.228;2024-01-30T07:40:54;0.70;;;0.70;;
2896;SDS011;1458;49.728;9.228;2024-01-30T07:43:21;0.70;;;0.70;;
2896;SDS011;1458;49.728;9.228;2024-01-30T07:45:49;0.70;;;0.70;;
2896;SDS011;1458;49.728;9.228;2024-01-30T07:48:16;0.60;;;0.60;;
2896;SDS011;1458;49.728;9.228;2024-01-30T07:50:45;0.80;;;0.80;;
2896;SDS011;1458;49.728;9.228;2024-01-30T07:53:13;0.80;;;0.80;;
2896;SDS011;1458;49.728;9.228;2024-01-30T07:55:40;0.70;;;0.70;;
2896;SDS011;1458;49.728;9.228;2024-01-30T07:58:11;0.70;;;0.70;;
2896;SDS011;1458;49.728;9.228;2024-01-30T08:00:39;0.70;;;0.70;;
2896;SDS011;1458;49.728;9.228;2024-01-30T08:03:06;0.80;;;0.80;;
2896;SDS011;1458;49.728;9.228;2024-01-30T08:05:34;0.70;;;0.70;;
2896;SDS011;1458;49.728;9.228;2024-01-30T08:08:03;0.70;;;0.70;;
2896;SDS011;1458;49.728;9.228;2024-01-30T08:10:31;0.70;;;0.70;;
2896;SDS011;1458;49.728;9.228;2024-01-30T08:12:59;0.70;;;0.70;;
2896;SDS011;1458;49.728;9.228;2024-01-30T08:15:27;0.70;;;0.70;;
2896;SDS011;1458;49.728;9.228;2024-01-30T08:17:54;0.70;;;0.70;;
2896;SDS011;1458;49.728;9.228;2024-01-30T08:20:23;0.70;;;0.70;;
2896;SDS011;1458;49.728;9.228;2024-01-30T08:22:51;0.70;;;0.70;;
2896;SDS011;1458;49.728;9.228;2024-01-30T08:25:20;0.70;;;0.70;;
2896;SDS011;1458;49.728;9.228;2024-01-30T08:27:48;0.70;;;0.70;;
2896;SDS011;1458;49.728;9.228;2024-01-30T08:30:15;0.80;;;0.80;;
2896;SDS011;1458;49.728;9.228;2024-01-30T08:32:43;0.70;;;0.70;;
2896;SDS011;1458;49.728;9.228;2024-01-30T08:35:10;0.70;;;0.70;;
2896;SDS011;1458;49.728;9.228;2024-01-30T08:37:40;0.93;;;0.93;;
2896;SDS011;1458;49.728;9.228;2024-01-30T08:40:07;0.80;;;0.80;;
2896;SDS011;1458;49.728;9.228;2024-01-30T08:42:37;0.80;;;0.80;;
2896;SDS011;1458;49.728;9.228;2024-01-30T08:45:05;0.70;;;0.70;;
2896;SDS011;1458;49.728;9.228;2024-01-30T08:47:34;0.83;;;0.83;;
2896;SDS011;1458;49.728;9.228;2024-01-30T08:50:02;0.70;;;0.70;;
2896;SDS011;1458;49.728;9.228;2024-01-30T08:52:30;0.80;;;0.80;;
2896;SDS011;1458;49.728;9.228;2024-01-30T08:54:59;0.73;;;0.73;;
2896;SDS011;1458;49.728;9.228;2024-01-30T08:57:26;0.80;;;0.80;;
2896;SDS011;1458;49.728;9.228;2024-01-30T08:59:57;0.73;;;0.73;;
2896;SDS011;1458;49.728;9.228;2024-01-30T09:02:24;0.80;;;0.80;;
2896;SDS011;1458;49.728;9.228;2024-01-30T09:04:51;0.70;;;0.70;;
2896;SDS011;1458;49.728;9.228;2024-01-30T09:07:19;0.80;;;0.80;;
2896;SDS011;1458;49.728;9.228;2024-01-30T09:09:46;0.80;;;0.80;;
2896;SDS011;1458;49.728;9.228;2024-01-30T09:12:14;0.70;;;0.70;;
2896;SDS011;1458;49.728;9.228;2024-01-30T09:14:41;0.83;;;0.83;;
2896;SDS011;1458;49.728;9.228;2024-01-30T09:17:10;0.80;;;0.80;;
2896;SDS011;1458;49.728;9.228;2024-01-30T09:19:38;0.70;;;0.70;;
2896;SDS011;1458;49.728;9.228;2024-01-30T09:22:06;0.70;;;0.70;;
2896;SDS011;1458;49.728;9.228;2024-01-30T09:24:34;0.83;;;0.83;;
2896;SDS011;1458;49.728;9.228;2024-01-30T09:27:01;1.03;;;1.03;;
2896;SDS011;1458;49.728;9.228;2024-01-30T09:29:29;1.00;;;1.00;;
2896;SDS011;1458;49.728;9.228;2024-01-30T09:31:56;0.80;;;0.80;;
2896;SDS011;1458;49.728;9.228;2024-01-30T09:34:25;0.80;;;0.80;;
2896;SDS011;1458;49.728;9.228;2024-01-30T09:36:53;0.97;;;0.97;;
2896;SDS011;1458;49.728;9.228;2024-01-30T09:39:19;0.80;;;0.80;;
2896;SDS011;1458;49.728;9.228;2024-01-30T09:41:48;0.80;;;0.80;;
2896;SDS011;1458;49.728;9.228;2024-01-30T09:44:27;0.90;;;0.90;;
2896;SDS011;1458;49.728;9.228;2024-01-30T09:46:56;0.80;;;0.80;;
2896;SDS011;1458;49.728;9.228;2024-01-30T09:49:30;0.93;;;0.93;;
2896;SDS011;1458;49.728;9.228;2024-01-30T09:51:59;0.80;;;0.80;;
2896;SDS011;1458;49.728;9.228;2024-01-30T09:54:28;0.80;;;0.80;;
2896;SDS011;1458;49.728;9.228;2024-01-30T09:56:57;0.90;;;0.90;;
2896;SDS011;1458;49.728;9.228;2024-01-30T09:59:24;0.90;;;0.90;;
2896;SDS011;1458;49.728;9.228;2024-01-30T10:01:52;0.80;;;0.80;;
2896;SDS011;1458;49.728;9.228;2024-01-30T10:04:20;0.87;;;0.87;;
2896;SDS011;1458;49.728;9.228;2024-01-30T10:06:48;0.80;;;0.80;;
2896;SDS011;1458;49.728;9.228;2024-01-30T10:09:17;0.90;;;0.90;;
2896;SDS011;1458;49.728;9.228;2024-01-30T10:11:44;0.90;;;0.90;;
2896;SDS011;1458;49.728;9.228;2024-01-30T10:14:12;1.00;;;1.00;;
2896;SDS011;1458;49.728;9.228;2024-01-30T10:16:39;0.93;;;0.93;;
2896;SDS011;1458;49.728;9.228;2024-01-30T10:19:07;1.13;;;1.13;;
2896;SDS011;1458;49.728;9.228;2024-01-30T10:21:36;1.00;;;1.00;;
2896;SDS011;1458;49.728;9.228;2024-01-30T10:24:05;1.00;;;1.00;;
2896;SDS011;1458;49.728;9.228;2024-01-30T10:26:33;1.13;;;1.13;;
2896;SDS011;1458;49.728;9.228;2024-01-30T10:29:02;1.20;;;1.20;;
2896;SDS011;1458;49.728;9.228;2024-01-30T10:31:30;1.40;;;1.40;;
2896;SDS011;1458;49.728;9.228;2024-01-30T10:33:57;1.17;;;1.17;;
2896;SDS011;1458;49.728;9.228;2024-01-30T10:36:26;1.20;;;1.20;;
2896;SDS011;1458;49.728;9.228;2024-01-30T10:38:55;1.20;;;1.20;;
2896;SDS011;1458;49.728;9.228;2024-01-30T10:41:28;1.50;;;1.50;;
2896;SDS011;1458;49.728;9.228;2024-01-30T10:44:02;1.40;;;1.40;;
2896;SDS011;1458;49.728;9.228;2024-01-30T10:46:37;1.60;;;1.60;;
2896;SDS011;1458;49.728;9.228;2024-01-30T10:49:05;1.23;;;1.23;;
2896;SDS011;1458;49.728;9.228;2024-01-30T10:51:33;1.20;;;1.20;;
2896;SDS011;1458;49.728;9.228;2024-01-30T10:54:02;1.50;;;1.50;;
2896;SDS011;1458;49.728;9.228;2024-01-30T10:56:33;1.40;;;1.40;;
2896;SDS011;1458;49.728;9.228;2024-01-30T10:59:01;1.60;;;1.60;;
2896;SDS011;1458;49.728;9.228;2024-01-30T11:01:29;1.50;;;1.50;;
2896;SDS011;1458;49.728;9.228;2024-01-30T11:03:57;2.00;;;2.00;;
2896;SDS011;1458;49.728;9.228;2024-01-30T11:06:25;2.23;;;2.23;;
2896;SDS011;1458;49.728;9.228;2024-01-30T11:09:02;1.83;;;1.83;;
2896;SDS011;1458;49.728;9.228;2024-01-30T11:11:48;1.93;;;1.93;;
2896;SDS011;1458;49.728;9.228;2024-01-30T11:14:16;2.13;;;2.13;;
2896;SDS011;1458;49.728;9.228;2024-01-30T11:16:51;2.00;;;2.00;;
2896;SDS011;1458;49.728;9.228;2024-01-30T11:19:22;1.80;;;1.80;;
2896;SDS011;1458;49.728;9.228;2024-01-30T11:21:51;2.10;;;2.10;;
2896;SDS011;1458;49.728;9.228;2024-01-30T11:24:21;1.90;;;1.90;;
2896;SDS011;1458;49.728;9.228;2024-01-30T11:26:55;2.23;;;2.23;;
2896;SDS011;1458;49.728;9.228;2024-01-30T11:29:24;1.80;;;1.80;;
2896;SDS011;1458;49.728;9.228;2024-01-30T11:31:51;2.00;;;2.00;;
2896;SDS011;1458;49.728;9.228;2024-01-30T11:34:19;2.00;;;2.00;;
2896;SDS011;1458;49.728;9.228;2024-01-30T11:36:51;2.10;;;2.10;;
2896;SDS011;1458;49.728;9.228;2024-01-30T11:39:24;2.40;;;2.40;;
2896;SDS011;1458;49.728;9.228;2024-01-30T11:41:54;2.50;;;2.50;;
2896;SDS011;1458;49.728;9.228;2024-01-30T11:44:22;2.40;;;2.40;;
2896;SDS011;1458;49.728;9.228;2024-01-30T11:46:50;2.23;;;2.23;;
2896;SDS011;1458;49.728;9.228;2024-01-30T11:49:18;2.30;;;2.30;;
2896;SDS011;1458;49.728;9.228;2024-01-30T11:51:46;2.30;;;2.30;;
2896;SDS011;1458;49.728;9.228;2024-01-30T11:54:14;2.50;;;2.50;;
2896;SDS011;1458;49.728;9.228;2024-01-30T11:56:42;2.50;;;2.50;;
2896;SDS011;1458;49.728;9.228;2024-01-30T11:59:12;2.70;;;2.70;;
2896;SDS011;1458;49.728;9.228;2024-01-30T12:01:40;2.60;;;2.60;;
2896;SDS011;1458;49.728;9.228;2024-01-30T12:04:09;2.60;;;2.60;;
2896;SDS011;1458;49.728;9.228;2024-01-30T12:06:36;2.50;;;2.50;;
2896;SDS011;1458;49.728;9.228;2024-01-30T12:09:04;2.40;;;2.40;;
2896;SDS011;1458;49.728;9.228;2024-01-30T12:11:34;2.20;;;2.20;;
2896;SDS011;1458;49.728;9.228;2024-01-30T12:14:12;2.70;;;2.70;;
2896;SDS011;1458;49.728;9.228;2024-01-30T12:16:40;2.70;;;2.70;;
2896;SDS011;1458;49.728;9.228;2024-01-30T12:19:08;3.00;;;3.00;;
2896;SDS011;1458;49.728;9.228;2024-01-30T12:21:35;2.80;;;2.80;;
2896;SDS011;1458;49.728;9.228;2024-01-30T12:24:05;2.80;;;2.80;;
2896;SDS011;1458;49.728;9.228;2024-01-30T12:26:33;2.80;;;2.80;;
2896;SDS011;1458;49.728;9.228;2024-01-30T12:29:03;2.80;;;2.80;;
2896;SDS011;1458;49.728;9.228;2024-01-30T12:31:32;2.60;;;2.60;;
2896;SDS011;1458;49.728;9.228;2024-01-30T12:34:00;2.33;;;2.33;;
2896;SDS011;1458;49.728;9.228;2024-01-30T12:36:28;2.20;;;2.20;;
2896;SDS011;1458;49.728;9.228;2024-01-30T12:38:56;2.40;;;2.40;;
2896;SDS011;1458;49.728;9.228;2024-01-30T12:41:24;2.50;;;2.50;;
2896;SDS011;1458;49.728;9.228;2024-01-30T12:43:53;2.40;;;2.40;;
2896;SDS011;1458;49.728;9.228;2024-01-30T12:46:21;2.40;;;2.40;;
2896;SDS011;1458;49.728;9.228;2024-01-30T12:48:55;2.80;;;2.80;;
2896;SDS011;1458;49.728;9.228;2024-01-30T12:51:23;2.60;;;2.60;;
2896;SDS011;1458;49.728;9.228;2024-01-30T12:53:50;2.80;;;2.80;;
2896;SDS011;1458;49.728;9.228;2024-01-30T12:56:18;2.70;;;2.70;;
2896;SDS011;1458;49.728;9.228;2024-01-30T12:58:45;2.50;;;2.50;;
2896;SDS011;1458;49.728;9.228;2024-01-30T13:01:13;2.40;;;2.40;;
2896;SDS011;1458;49.728;9.228;2024-01-30T13:03:40;2.30;;;2.30;;
2896;SDS011;1458;49.728;9.228;2024-01-30T13:06:09;2.40;;;2.40;;
2896;SDS011;1458;49.728;9.228;2024-01-30T13:08:37;2.37;;;2.37;;
2896;SDS011;1458;49.728;9.228;2024-01-30T13:11:04;2.50;;;2.50;;
2896;SDS011;1458;49.728;9.228;2024-01-30T13:13:32;2.93;;;2.93;;
2896;SDS011;1458;49.728;9.228;2024-01-30T13:16:00;2.70;;;2.70;;
2896;SDS011;1458;49.728;9.228;2024-01-30T13:18:28;2.70;;;2.70;;
2896;SDS011;1458;49.728;9.228;2024-01-30T13:20:55;3.00;;;3.00;;
2896;SDS011;1458;49.728;9.228;2024-01-30T13:23:24;3.20;;;3.20;;
2896;SDS011;1458;49.728;9.228;2024-01-30T13:25:51;2.80;;;2.80;;
2896;SDS011;1458;49.728;9.228;2024-01-30T13:28:23;2.70;;;2.70;;
2896;SDS011;1458;49.728;9.228;2024-01-30T13:30:50;2.80;;;2.80;;
2896;SDS011;1458;49.728;9.228;2024-01-30T13:33:18;3.20;;;3.20;;
2896;SDS011;1458;49.728;9.228;2024-01-30T13:35:45;2.70;;;2.70;;
2896;SDS011;1458;49.728;9.228;2024-01-30T13:38:13;2.90;;;2.90;;
2896;SDS011;1458;49.728;9.228;2024-01-30T13:40:42;3.10;;;3.10;;
2896;SDS011;1458;49.728;9.228;2024-01-30T13:43:10;2.90;;;2.90;;
2896;SDS011;1458;49.728;9.228;2024-01-30T13:45:37;2.80;;;2.80;;
2896;SDS011;1458;49.728;9.228;2024-01-30T13:48:05;2.70;;;2.70;;
2896;SDS011;1458;49.728;9.228;2024-01-30T13:50:33;2.67;;;2.67;;
2896;SDS011;1458;49.728;9.228;2024-01-30T13:53:02;2.60;;;2.60;;
2896;SDS011;1458;49.728;9.228;2024-01-30T13:55:30;2.50;;;2.50;;
2896;SDS011;1458;49.728;9.228;2024-01-30T13:57:58;2.70;;;2.70;;
2896;SDS011;1458;49.728;9.228;2024-01-30T14:00:26;2.70;;;2.70;;
2896;SDS011;1458;49.728;9.228;2024-01-30T14:02:54;2.80;;;2.80;;
2896;SDS011;1458;49.728;9.228;2024-01-30T14:05:23;2.60;;;2.60;;
2896;SDS011;1458;49.728;9.228;2024-01-30T14:07:50;2.90;;;2.90;;
2896;SDS011;1458;49.728;9.228;2024-01-30T14:10:18;3.00;;;3.00;;
2896;SDS011;1458;49.728;9.228;2024-01-30T14:12:46;2.90;;;2.90;;
2896;SDS011;1458;49.728;9.228;2024-01-30T14:15:15;2.63;;;2.63;;
2896;SDS011;1458;49.728;9.228;2024-01-30T14:17:43;2.90;;;2.90;;
2896;SDS011;1458;49.728;9.228;2024-01-30T14:20:13;3.10;;;3.10;;
2896;SDS011;1458;49.728;9.228;2024-01-30T14:22:42;3.03;;;3.03;;
2896;SDS011;1458;49.728;9.228;2024-01-30T14:25:09;3.20;;;3.20;;
2896;SDS011;1458;49.728;9.228;2024-01-30T14:27:37;3.33;;;3.33;;
2896;SDS011;1458;49.728;9.228;2024-01-30T14:30:05;2.90;;;2.90;;
2896;SDS011;1458;49.728;9.228;2024-01-30T14:32:38;2.70;;;2.70;;
2896;SDS011;1458;49.728;9.228;2024-01-30T14:35:08;3.10;;;3.10;;
2896;SDS011;1458;49.728;9.228;2024-01-30T14:37:35;2.90;;;2.90;;
2896;SDS011;1458;49.728;9.228;2024-01-30T14:40:04;3.00;;;3.00;;
2896;SDS011;1458;49.728;9.228;2024-01-30T14:42:33;2.80;;;2.80;;
2896;SDS011;1458;49.728;9.228;2024-01-30T14:45:02;2.40;;;2.40;;
2896;SDS011;1458;49.728;9.228;2024-01-30T14:47:31;2.40;;;2.40;;
2896;SDS011;1458;49.728;9.228;2024-01-30T14:50:02;2.77;;;2.77;;
2896;SDS011;1458;49.728;9.228;2024-01-30T14:52:30;3.10;;;3.10;;
2896;SDS011;1458;49.728;9.228;2024-01-30T14:54:58;2.50;;;2.50;;
2896;SDS011;1458;49.728;9.228;2024-01-30T14:57:25;2.60;;;2.60;;
2896;SDS011;1458;49.728;9.228;2024-01-30T14:59:53;2.20;;;2.20;;
2896;SDS011;1458;49.728;9.228;2024-01-30T15:02:21;2.30;;;2.30;;
2896;SDS011;1458;49.728;9.228;2024-01-30T15:04:49;2.50;;;2.50;;
2896;SDS011;1458;49.728;9.228;2024-01-30T15:07:17;2.50;;;2.50;;
2896;SDS011;1458;49.728;9.228;2024-01-30T15:09:45;2.53;;;2.53;;
2896;SDS011;1458;49.728;9.228;2024-01-30T15:12:12;2.23;;;2.23;;
2896;SDS011;1458;49.728;9.228;2024-01-30T15:14:40;2.30;;;2.30;;
2896;SDS011;1458;49.728;9.228;2024-01-30T15:17:15;2.40;;;2.40;;
2896;SDS011;1458;49.728;9.228;2024-01-30T15:19:43;2.20;;;2.20;;
2896;SDS011;1458;49.728;9.228;2024-01-30T15:22:10;2.50;;;2.50;;
2896;SDS011;1458;49.728;9.228;2024-01-30T15:24:39;2.20;;;2.20;;